sensor_id;sensor_type;location;lat;lon;timestamp;P1;durP1;ratioP1;P2;durP2;ratioP2
2021;SDS011;1015;49.756;6.994;2022-12-20T00:00:31;6.03;;;4.53;;
2021;SDS011;1015;49.756;6.994;2022-12-20T00:02:58;7.87;;;4.80;;
2021;SDS011;1015;49.756;6.994;2022-12-20T00:05:25;4.70;;;4.07;;
2021;SDS011;1015;49.756;6.994;2022-12-20T00:07:52;9.17;;;4.73;;
2021;SDS011;1015;49.756;6.994;2022-12-20T00:10:20;5.63;;;3.90;;
2021;SDS011;1015;49.756;6.994;2022-12-20T00:12:47;5.77;;;4.50;;
2021;SDS011;1015;49.756;6.994;2022-12-20T00:15:16;7.00;;;4.53;;
2021;SDS011;1015;49.756;6.994;2022-12-20T00:17:43;6.63;;;4.43;;
2021;SDS011;1015;49.756;6.994;2022-12-20T00:20:11;5.70;;;3.77;;
2021;SDS011;1015;49.756;6.994;2022-12-20T00:22:38;5.97;;;3.80;;
2021;SDS011;1015;49.756;6.994;2022-12-20T00:25:06;6.30;;;3.93;;
2021;SDS011;1015;49.756;6.994;2022-12-20T00:27:33;6.20;;;4.17;;
2021;SDS011;1015;49.756;6.994;2022-12-20T00:30:00;5.37;;;3.60;;
2021;SDS011;1015;49.756;6.994;2022-12-20T00:32:29;5.70;;;3.77;;
2021;SDS011;1015;49.756;6.994;2022-12-20T00:34:56;5.90;;;3.87;;
2021;SDS011;1015;49.756;6.994;2022-12-20T00:37:23;3.87;;;3.37;;
2021;SDS011;1015;49.756;6.994;2022-12-20T00:39:51;4.53;;;3.80;;
2021;SDS011;1015;49.756;6.994;2022-12-20T00:42:18;6.53;;;4.07;;
2021;SDS011;1015;49.756;6.994;2022-12-20T00:44:45;6.23;;;3.93;;
2021;SDS011;1015;49.756;6.994;2022-12-20T00:47:12;5.50;;;4.37;;
2021;SDS011;1015;49.756;6.994;2022-12-20T00:49:41;4.80;;;3.83;;
2021;SDS011;1015;49.756;6.994;2022-12-20T00:52:08;6.80;;;3.90;;
2021;SDS011;1015;49.756;6.994;2022-12-20T00:54:36;5.80;;;3.87;;
2021;SDS011;1015;49.756;6.994;2022-12-20T00:57:03;4.43;;;3.50;;
2021;SDS011;1015;49.756;6.994;2022-12-20T00:59:31;6.63;;;4.43;;
2021;SDS011;1015;49.756;6.994;2022-12-20T01:01:58;7.00;;;3.97;;
2021;SDS011;1015;49.756;6.994;2022-12-20T01:04:26;5.37;;;4.23;;
2021;SDS011;1015;49.756;6.994;2022-12-20T01:06:54;4.00;;;3.60;;
2021;SDS011;1015;49.756;6.994;2022-12-20T01:09:21;5.70;;;4.00;;
2021;SDS011;1015;49.756;6.994;2022-12-20T01:11:49;5.40;;;3.80;;
2021;SDS011;1015;49.756;6.994;2022-12-20T01:14:16;4.53;;;4.13;;
2021;SDS011;1015;49.756;6.994;2022-12-20T01:16:44;8.83;;;4.87;;
2021;SDS011;1015;49.756;6.994;2022-12-20T01:19:12;4.90;;;4.40;;
2021;SDS011;1015;49.756;6.994;2022-12-20T01:21:39;9.07;;;4.80;;
2021;SDS011;1015;49.756;6.994;2022-12-20T01:24:10;6.53;;;4.77;;
2021;SDS011;1015;49.756;6.994;2022-12-20T01:26:37;6.47;;;4.60;;
2021;SDS011;1015;49.756;6.994;2022-12-20T01:29:04;5.33;;;4.13;;
2021;SDS011;1015;49.756;6.994;2022-12-20T01:31:32;6.23;;;4.27;;
2021;SDS011;1015;49.756;6.994;2022-12-20T01:33:59;6.50;;;4.23;;
2021;SDS011;1015;49.756;6.994;2022-12-20T01:36:27;5.20;;;4.70;;
2021;SDS011;1015;49.756;6.994;2022-12-20T01:38:55;8.47;;;4.60;;
2021;SDS011;1015;49.756;6.994;2022-12-20T01:41:24;7.37;;;4.50;;
2021;SDS011;1015;49.756;6.994;2022-12-20T01:43:53;6.00;;;4.40;;
2021;SDS011;1015;49.756;6.994;2022-12-20T01:46:21;6.60;;;4.00;;
2021;SDS011;1015;49.756;6.994;2022-12-20T01:48:49;4.10;;;3.60;;
2021;SDS011;1015;49.756;6.994;2022-12-20T01:51:18;6.50;;;4.50;;
2021;SDS011;1015;49.756;6.994;2022-12-20T01:53:46;4.70;;;3.90;;
2021;SDS011;1015;49.756;6.994;2022-12-20T01:56:14;4.40;;;3.90;;
2021;SDS011;1015;49.756;6.994;2022-12-20T01:58:42;5.10;;;3.73;;
2021;SDS011;1015;49.756;6.994;2022-12-20T02:01:12;4.10;;;3.70;;
2021;SDS011;1015;49.756;6.994;2022-12-20T02:03:40;5.13;;;3.60;;
2021;SDS011;1015;49.756;6.994;2022-12-20T02:06:14;7.60;;;3.80;;
2021;SDS011;1015;49.756;6.994;2022-12-20T02:08:43;4.23;;;3.80;;
2021;SDS011;1015;49.756;6.994;2022-12-20T02:11:14;4.27;;;3.87;;
2021;SDS011;1015;49.756;6.994;2022-12-20T02:13:50;7.03;;;3.50;;
2021;SDS011;1015;49.756;6.994;2022-12-20T02:16:21;5.10;;;3.80;;
2021;SDS011;1015;49.756;6.994;2022-12-20T02:18:50;8.20;;;4.13;;
2021;SDS011;1015;49.756;6.994;2022-12-20T02:21:23;5.40;;;3.53;;
2021;SDS011;1015;49.756;6.994;2022-12-20T02:29:37;4.83;;;3.70;;
2021;SDS011;1015;49.756;6.994;2022-12-20T02:32:10;4.40;;;3.87;;
2021;SDS011;1015;49.756;6.994;2022-12-20T02:34:38;4.07;;;3.53;;
2021;SDS011;1015;49.756;6.994;2022-12-20T02:37:06;5.50;;;3.80;;
2021;SDS011;1015;49.756;6.994;2022-12-20T02:39:33;4.37;;;3.60;;
2021;SDS011;1015;49.756;6.994;2022-12-20T02:42:02;3.50;;;3.20;;
2021;SDS011;1015;49.756;6.994;2022-12-20T02:44:31;4.33;;;3.40;;
2021;SDS011;1015;49.756;6.994;2022-12-20T02:47:20;6.47;;;3.90;;
2021;SDS011;1015;49.756;6.994;2022-12-20T02:49:48;5.63;;;4.23;;
2021;SDS011;1015;49.756;6.994;2022-12-20T02:52:16;5.20;;;3.63;;
2021;SDS011;1015;49.756;6.994;2022-12-20T02:54:46;8.60;;;4.40;;
2021;SDS011;1015;49.756;6.994;2022-12-20T02:57:15;4.93;;;4.20;;
2021;SDS011;1015;49.756;6.994;2022-12-20T02:59:44;4.23;;;3.67;;
2021;SDS011;1015;49.756;6.994;2022-12-20T03:02:15;6.27;;;4.57;;
2021;SDS011;1015;49.756;6.994;2022-12-20T03:04:44;4.30;;;3.50;;
2021;SDS011;1015;49.756;6.994;2022-12-20T03:07:12;4.23;;;3.70;;
2021;SDS011;1015;49.756;6.994;2022-12-20T03:09:41;9.37;;;5.93;;
2021;SDS011;1015;49.756;6.994;2022-12-20T03:12:09;6.97;;;5.17;;
2021;SDS011;1015;49.756;6.994;2022-12-20T03:14:37;14.27;;;7.57;;
2021;SDS011;1015;49.756;6.994;2022-12-20T03:17:04;9.37;;;5.53;;
2021;SDS011;1015;49.756;6.994;2022-12-20T03:19:31;9.60;;;6.17;;
2021;SDS011;1015;49.756;6.994;2022-12-20T03:22:00;7.40;;;4.83;;
2021;SDS011;1015;49.756;6.994;2022-12-20T03:24:28;8.37;;;5.77;;
2021;SDS011;1015;49.756;6.994;2022-12-20T03:26:56;9.63;;;5.53;;
2021;SDS011;1015;49.756;6.994;2022-12-20T03:29:23;6.93;;;4.90;;
2021;SDS011;1015;49.756;6.994;2022-12-20T03:31:51;5.17;;;4.37;;
2021;SDS011;1015;49.756;6.994;2022-12-20T03:34:18;5.20;;;3.70;;
2021;SDS011;1015;49.756;6.994;2022-12-20T03:36:45;5.30;;;4.40;;
2021;SDS011;1015;49.756;6.994;2022-12-20T03:39:15;4.97;;;3.80;;
2021;SDS011;1015;49.756;6.994;2022-12-20T03:41:42;4.90;;;3.97;;
2021;SDS011;1015;49.756;6.994;2022-12-20T03:44:10;4.10;;;3.80;;
2021;SDS011;1015;49.756;6.994;2022-12-20T03:46:37;4.77;;;3.77;;
2021;SDS011;1015;49.756;6.994;2022-12-20T03:49:05;7.23;;;3.13;;
2021;SDS011;1015;49.756;6.994;2022-12-20T03:51:32;4.70;;;3.70;;
2021;SDS011;1015;49.756;6.994;2022-12-20T03:53:59;5.83;;;3.40;;
2021;SDS011;1015;49.756;6.994;2022-12-20T03:56:28;4.47;;;4.00;;
2021;SDS011;1015;49.756;6.994;2022-12-20T03:58:55;5.00;;;3.73;;
2021;SDS011;1015;49.756;6.994;2022-12-20T04:01:23;4.67;;;3.83;;
2021;SDS011;1015;49.756;6.994;2022-12-20T04:03:51;4.63;;;4.13;;
2021;SDS011;1015;49.756;6.994;2022-12-20T04:06:18;4.60;;;3.87;;
2021;SDS011;1015;49.756;6.994;2022-12-20T04:08:45;5.57;;;5.00;;
2021;SDS011;1015;49.756;6.994;2022-12-20T04:11:13;5.43;;;4.27;;
2021;SDS011;1015;49.756;6.994;2022-12-20T04:13:45;4.37;;;3.60;;
2021;SDS011;1015;49.756;6.994;2022-12-20T04:16:13;6.60;;;4.07;;
2021;SDS011;1015;49.756;6.994;2022-12-20T04:18:40;4.60;;;4.10;;
2021;SDS011;1015;49.756;6.994;2022-12-20T04:21:08;6.00;;;4.40;;
2021;SDS011;1015;49.756;6.994;2022-12-20T04:23:36;5.73;;;4.20;;
2021;SDS011;1015;49.756;6.994;2022-12-20T04:26:04;5.33;;;4.03;;
2021;SDS011;1015;49.756;6.994;2022-12-20T04:28:32;7.20;;;4.50;;
2021;SDS011;1015;49.756;6.994;2022-12-20T04:31:00;9.33;;;4.60;;
2021;SDS011;1015;49.756;6.994;2022-12-20T04:33:28;4.60;;;4.00;;
2021;SDS011;1015;49.756;6.994;2022-12-20T04:35:55;4.70;;;4.00;;
2021;SDS011;1015;49.756;6.994;2022-12-20T04:38:23;6.20;;;4.30;;
2021;SDS011;1015;49.756;6.994;2022-12-20T04:40:51;4.30;;;3.90;;
2021;SDS011;1015;49.756;6.994;2022-12-20T04:43:19;4.00;;;3.70;;
2021;SDS011;1015;49.756;6.994;2022-12-20T04:45:47;6.50;;;3.63;;
2021;SDS011;1015;49.756;6.994;2022-12-20T04:48:16;5.63;;;4.57;;
2021;SDS011;1015;49.756;6.994;2022-12-20T04:50:46;5.17;;;4.23;;
2021;SDS011;1015;49.756;6.994;2022-12-20T04:53:14;4.90;;;4.40;;
2021;SDS011;1015;49.756;6.994;2022-12-20T04:55:58;7.87;;;4.33;;
2021;SDS011;1015;49.756;6.994;2022-12-20T04:58:26;5.17;;;3.53;;
2021;SDS011;1015;49.756;6.994;2022-12-20T05:00:53;4.07;;;3.00;;
2021;SDS011;1015;49.756;6.994;2022-12-20T05:03:22;5.27;;;3.70;;
2021;SDS011;1015;49.756;6.994;2022-12-20T05:05:50;4.77;;;3.80;;
2021;SDS011;1015;49.756;6.994;2022-12-20T05:08:17;5.57;;;3.83;;
2021;SDS011;1015;49.756;6.994;2022-12-20T05:10:44;5.50;;;3.60;;
2021;SDS011;1015;49.756;6.994;2022-12-20T05:13:11;5.33;;;3.50;;
2021;SDS011;1015;49.756;6.994;2022-12-20T05:15:39;5.03;;;4.33;;
2021;SDS011;1015;49.756;6.994;2022-12-20T05:18:06;4.60;;;4.10;;
2021;SDS011;1015;49.756;6.994;2022-12-20T05:20:35;6.60;;;3.80;;
2021;SDS011;1015;49.756;6.994;2022-12-20T05:23:02;4.10;;;3.70;;
2021;SDS011;1015;49.756;6.994;2022-12-20T05:25:47;4.13;;;3.37;;
2021;SDS011;1015;49.756;6.994;2022-12-20T05:28:28;5.13;;;3.53;;
2021;SDS011;1015;49.756;6.994;2022-12-20T05:30:56;4.43;;;3.47;;
2021;SDS011;1015;49.756;6.994;2022-12-20T05:33:23;3.83;;;3.23;;
2021;SDS011;1015;49.756;6.994;2022-12-20T05:35:52;4.60;;;3.43;;
2021;SDS011;1015;49.756;6.994;2022-12-20T05:38:20;5.73;;;3.10;;
2021;SDS011;1015;49.756;6.994;2022-12-20T05:40:47;4.20;;;3.20;;
2021;SDS011;1015;49.756;6.994;2022-12-20T05:43:15;3.57;;;3.23;;
2021;SDS011;1015;49.756;6.994;2022-12-20T05:45:44;5.17;;;4.50;;
2021;SDS011;1015;49.756;6.994;2022-12-20T05:54:20;4.87;;;3.60;;
2021;SDS011;1015;49.756;6.994;2022-12-20T05:56:49;5.10;;;3.70;;
2021;SDS011;1015;49.756;6.994;2022-12-20T05:59:16;4.30;;;3.20;;
2021;SDS011;1015;49.756;6.994;2022-12-20T06:01:43;6.90;;;3.27;;
2021;SDS011;1015;49.756;6.994;2022-12-20T06:04:11;3.63;;;3.30;;
2021;SDS011;1015;49.756;6.994;2022-12-20T06:06:38;5.30;;;3.60;;
2021;SDS011;1015;49.756;6.994;2022-12-20T06:09:05;3.53;;;3.23;;
2021;SDS011;1015;49.756;6.994;2022-12-20T06:11:34;3.70;;;3.07;;
2021;SDS011;1015;49.756;6.994;2022-12-20T06:14:01;3.93;;;3.37;;
2021;SDS011;1015;49.756;6.994;2022-12-20T06:16:28;4.03;;;3.53;;
2021;SDS011;1015;49.756;6.994;2022-12-20T06:18:55;3.77;;;3.10;;
2021;SDS011;1015;49.756;6.994;2022-12-20T06:21:23;4.70;;;3.33;;
2021;SDS011;1015;49.756;6.994;2022-12-20T06:23:52;6.90;;;3.60;;
2021;SDS011;1015;49.756;6.994;2022-12-20T06:26:20;6.10;;;2.93;;
2021;SDS011;1015;49.756;6.994;2022-12-20T06:28:49;3.67;;;2.80;;
2021;SDS011;1015;49.756;6.994;2022-12-20T06:31:18;4.20;;;3.07;;
2021;SDS011;1015;49.756;6.994;2022-12-20T06:33:46;3.33;;;2.93;;
2021;SDS011;1015;49.756;6.994;2022-12-20T06:36:13;3.93;;;3.53;;
2021;SDS011;1015;49.756;6.994;2022-12-20T06:38:41;3.47;;;2.77;;
2021;SDS011;1015;49.756;6.994;2022-12-20T06:41:08;4.20;;;3.20;;
2021;SDS011;1015;49.756;6.994;2022-12-20T06:43:36;3.40;;;3.00;;
2021;SDS011;1015;49.756;6.994;2022-12-20T06:46:04;4.63;;;3.00;;
2021;SDS011;1015;49.756;6.994;2022-12-20T06:48:32;3.50;;;3.20;;
2021;SDS011;1015;49.756;6.994;2022-12-20T06:50:59;3.30;;;2.90;;
2021;SDS011;1015;49.756;6.994;2022-12-20T06:53:26;3.93;;;2.80;;
2021;SDS011;1015;49.756;6.994;2022-12-20T06:55:53;3.70;;;2.63;;
2021;SDS011;1015;49.756;6.994;2022-12-20T06:58:21;6.33;;;2.80;;
2021;SDS011;1015;49.756;6.994;2022-12-20T07:00:48;5.07;;;3.20;;
2021;SDS011;1015;49.756;6.994;2022-12-20T07:03:16;3.40;;;2.90;;
2021;SDS011;1015;49.756;6.994;2022-12-20T07:05:44;3.53;;;2.67;;
2021;SDS011;1015;49.756;6.994;2022-12-20T07:08:16;4.70;;;2.70;;
2021;SDS011;1015;49.756;6.994;2022-12-20T07:10:44;5.67;;;2.83;;
2021;SDS011;1015;49.756;6.994;2022-12-20T07:13:11;4.33;;;2.40;;
2021;SDS011;1015;49.756;6.994;2022-12-20T07:15:38;3.30;;;3.00;;
2021;SDS011;1015;49.756;6.994;2022-12-20T07:18:06;5.40;;;2.47;;
2021;SDS011;1015;49.756;6.994;2022-12-20T07:20:34;3.70;;;2.67;;
2021;SDS011;1015;49.756;6.994;2022-12-20T07:23:02;4.00;;;2.73;;
2021;SDS011;1015;49.756;6.994;2022-12-20T07:25:29;3.43;;;3.13;;
2021;SDS011;1015;49.756;6.994;2022-12-20T07:27:56;3.80;;;2.33;;
2021;SDS011;1015;49.756;6.994;2022-12-20T07:30:24;2.90;;;2.30;;
2021;SDS011;1015;49.756;6.994;2022-12-20T07:32:51;2.60;;;2.40;;
2021;SDS011;1015;49.756;6.994;2022-12-20T07:35:18;3.20;;;2.53;;
2021;SDS011;1015;49.756;6.994;2022-12-20T07:37:47;2.80;;;2.57;;
2021;SDS011;1015;49.756;6.994;2022-12-20T07:40:14;3.90;;;2.80;;
2021;SDS011;1015;49.756;6.994;2022-12-20T07:42:41;2.77;;;2.47;;
2021;SDS011;1015;49.756;6.994;2022-12-20T07:45:09;2.83;;;2.30;;
2021;SDS011;1015;49.756;6.994;2022-12-20T07:47:36;2.97;;;2.33;;
2021;SDS011;1015;49.756;6.994;2022-12-20T07:50:03;3.77;;;2.43;;
2021;SDS011;1015;49.756;6.994;2022-12-20T07:52:31;4.20;;;2.43;;
2021;SDS011;1015;49.756;6.994;2022-12-20T07:55:01;3.17;;;2.80;;
2021;SDS011;1015;49.756;6.994;2022-12-20T07:57:30;4.60;;;3.00;;
2021;SDS011;1015;49.756;6.994;2022-12-20T07:59:58;3.43;;;2.70;;
2021;SDS011;1015;49.756;6.994;2022-12-20T08:02:27;2.77;;;2.50;;
2021;SDS011;1015;49.756;6.994;2022-12-20T08:04:57;3.30;;;2.53;;
2021;SDS011;1015;49.756;6.994;2022-12-20T08:07:25;2.60;;;2.40;;
2021;SDS011;1015;49.756;6.994;2022-12-20T08:09:53;3.60;;;2.80;;
2021;SDS011;1015;49.756;6.994;2022-12-20T08:12:22;11.13;;;6.37;;
2021;SDS011;1015;49.756;6.994;2022-12-20T08:14:51;8.50;;;6.40;;
2021;SDS011;1015;49.756;6.994;2022-12-20T08:17:20;16.43;;;10.50;;
2021;SDS011;1015;49.756;6.994;2022-12-20T08:19:47;7.67;;;5.30;;
2021;SDS011;1015;49.756;6.994;2022-12-20T08:22:16;11.13;;;8.70;;
2021;SDS011;1015;49.756;6.994;2022-12-20T08:24:43;8.23;;;4.13;;
2021;SDS011;1015;49.756;6.994;2022-12-20T08:27:10;9.83;;;4.70;;
2021;SDS011;1015;49.756;6.994;2022-12-20T08:29:39;5.50;;;4.60;;
2021;SDS011;1015;49.756;6.994;2022-12-20T08:32:06;4.50;;;3.90;;
2021;SDS011;1015;49.756;6.994;2022-12-20T08:34:34;6.27;;;4.00;;
2021;SDS011;1015;49.756;6.994;2022-12-20T08:37:01;4.57;;;3.90;;
2021;SDS011;1015;49.756;6.994;2022-12-20T08:39:28;3.93;;;2.73;;
2021;SDS011;1015;49.756;6.994;2022-12-20T08:41:56;3.50;;;2.83;;
2021;SDS011;1015;49.756;6.994;2022-12-20T08:44:23;3.20;;;2.80;;
2021;SDS011;1015;49.756;6.994;2022-12-20T08:46:52;3.57;;;2.80;;
2021;SDS011;1015;49.756;6.994;2022-12-20T08:49:19;3.40;;;2.70;;
2021;SDS011;1015;49.756;6.994;2022-12-20T08:51:46;2.67;;;2.47;;
2021;SDS011;1015;49.756;6.994;2022-12-20T08:54:13;2.60;;;2.40;;
2021;SDS011;1015;49.756;6.994;2022-12-20T08:56:41;2.83;;;2.63;;
2021;SDS011;1015;49.756;6.994;2022-12-20T08:59:08;3.80;;;2.60;;
2021;SDS011;1015;49.756;6.994;2022-12-20T09:01:36;3.80;;;2.87;;
2021;SDS011;1015;49.756;6.994;2022-12-20T09:04:04;3.63;;;2.87;;
2021;SDS011;1015;49.756;6.994;2022-12-20T09:06:33;2.60;;;2.40;;
2021;SDS011;1015;49.756;6.994;2022-12-20T09:09:00;3.00;;;2.37;;
2021;SDS011;1015;49.756;6.994;2022-12-20T09:11:28;2.90;;;2.43;;
2021;SDS011;1015;49.756;6.994;2022-12-20T09:13:55;3.97;;;2.80;;
2021;SDS011;1015;49.756;6.994;2022-12-20T09:16:23;3.07;;;2.33;;
2021;SDS011;1015;49.756;6.994;2022-12-20T09:18:51;3.47;;;2.50;;
2021;SDS011;1015;49.756;6.994;2022-12-20T09:21:21;4.00;;;3.40;;
2021;SDS011;1015;49.756;6.994;2022-12-20T09:23:49;3.10;;;2.27;;
2021;SDS011;1015;49.756;6.994;2022-12-20T09:26:16;2.27;;;2.03;;
2021;SDS011;1015;49.756;6.994;2022-12-20T09:28:44;3.70;;;2.97;;
2021;SDS011;1015;49.756;6.994;2022-12-20T09:31:12;4.60;;;3.20;;
2021;SDS011;1015;49.756;6.994;2022-12-20T09:33:39;8.77;;;6.00;;
2021;SDS011;1015;49.756;6.994;2022-12-20T09:36:09;3.67;;;3.33;;
2021;SDS011;1015;49.756;6.994;2022-12-20T09:38:38;5.17;;;2.70;;
2021;SDS011;1015;49.756;6.994;2022-12-20T09:41:05;3.40;;;3.10;;
2021;SDS011;1015;49.756;6.994;2022-12-20T09:43:33;3.23;;;2.90;;
2021;SDS011;1015;49.756;6.994;2022-12-20T09:46:01;3.50;;;3.20;;
2021;SDS011;1015;49.756;6.994;2022-12-20T09:48:29;3.73;;;2.70;;
2021;SDS011;1015;49.756;6.994;2022-12-20T09:51:01;4.00;;;2.77;;
2021;SDS011;1015;49.756;6.994;2022-12-20T09:53:33;3.40;;;3.10;;
2021;SDS011;1015;49.756;6.994;2022-12-20T09:56:06;3.97;;;3.27;;
2021;SDS011;1015;49.756;6.994;2022-12-20T10:01:42;3.57;;;2.63;;
2021;SDS011;1015;49.756;6.994;2022-12-20T10:04:11;4.47;;;3.27;;
2021;SDS011;1015;49.756;6.994;2022-12-20T10:06:43;3.43;;;2.60;;
2021;SDS011;1015;49.756;6.994;2022-12-20T10:09:14;3.60;;;2.60;;
2021;SDS011;1015;49.756;6.994;2022-12-20T10:11:48;6.57;;;2.97;;
2021;SDS011;1015;49.756;6.994;2022-12-20T10:14:23;4.10;;;3.10;;
2021;SDS011;1015;49.756;6.994;2022-12-20T10:16:54;3.60;;;2.73;;
2021;SDS011;1015;49.756;6.994;2022-12-20T10:19:29;4.07;;;3.13;;
2021;SDS011;1015;49.756;6.994;2022-12-20T10:22:02;3.10;;;2.80;;
2021;SDS011;1015;49.756;6.994;2022-12-20T10:24:32;5.40;;;2.83;;
2021;SDS011;1015;49.756;6.994;2022-12-20T10:27:04;3.83;;;3.13;;
2021;SDS011;1015;49.756;6.994;2022-12-20T10:29:33;3.23;;;2.50;;
2021;SDS011;1015;49.756;6.994;2022-12-20T10:32:00;3.20;;;2.20;;
2021;SDS011;1015;49.756;6.994;2022-12-20T10:34:28;2.97;;;2.47;;
2021;SDS011;1015;49.756;6.994;2022-12-20T10:37:09;3.77;;;2.67;;
2021;SDS011;1015;49.756;6.994;2022-12-20T10:39:39;4.23;;;2.80;;
2021;SDS011;1015;49.756;6.994;2022-12-20T10:42:11;4.27;;;2.53;;
2021;SDS011;1015;49.756;6.994;2022-12-20T10:44:48;5.07;;;2.80;;
2021;SDS011;1015;49.756;6.994;2022-12-20T10:47:20;3.13;;;2.83;;
2021;SDS011;1015;49.756;6.994;2022-12-20T10:49:49;3.50;;;2.43;;
2021;SDS011;1015;49.756;6.994;2022-12-20T10:52:17;3.07;;;2.80;;
2021;SDS011;1015;49.756;6.994;2022-12-20T10:54:44;3.47;;;2.20;;
2021;SDS011;1015;49.756;6.994;2022-12-20T10:57:15;3.13;;;2.80;;
2021;SDS011;1015;49.756;6.994;2022-12-20T10:59:44;3.90;;;2.47;;
2021;SDS011;1015;49.756;6.994;2022-12-20T11:02:23;2.80;;;2.50;;
2021;SDS011;1015;49.756;6.994;2022-12-20T11:04:56;2.93;;;2.00;;
2021;SDS011;1015;49.756;6.994;2022-12-20T11:07:24;2.80;;;2.50;;
2021;SDS011;1015;49.756;6.994;2022-12-20T11:09:53;3.20;;;2.63;;
2021;SDS011;1015;49.756;6.994;2022-12-20T11:12:22;3.17;;;2.73;;
2021;SDS011;1015;49.756;6.994;2022-12-20T11:14:49;3.10;;;2.40;;
2021;SDS011;1015;49.756;6.994;2022-12-20T11:17:33;4.10;;;2.47;;
2021;SDS011;1015;49.756;6.994;2022-12-20T11:20:24;2.93;;;2.30;;
2021;SDS011;1015;49.756;6.994;2022-12-20T11:22:54;3.13;;;2.50;;
2021;SDS011;1015;49.756;6.994;2022-12-20T11:25:31;4.20;;;2.30;;
2021;SDS011;1015;49.756;6.994;2022-12-20T11:28:12;5.17;;;2.70;;
2021;SDS011;1015;49.756;6.994;2022-12-20T11:30:46;3.60;;;2.70;;
2021;SDS011;1015;49.756;6.994;2022-12-20T11:36:00;6.30;;;2.60;;
2021;SDS011;1015;49.756;6.994;2022-12-20T11:38:31;3.80;;;2.90;;
2021;SDS011;1015;49.756;6.994;2022-12-20T11:41:07;3.60;;;2.60;;
2021;SDS011;1015;49.756;6.994;2022-12-20T11:43:42;4.83;;;2.20;;
2021;SDS011;1015;49.756;6.994;2022-12-20T11:46:16;3.17;;;2.43;;
2021;SDS011;1015;49.756;6.994;2022-12-20T11:48:53;3.60;;;3.03;;
2021;SDS011;1015;49.756;6.994;2022-12-20T11:51:25;3.43;;;2.40;;
2021;SDS011;1015;49.756;6.994;2022-12-20T11:53:57;2.50;;;2.20;;
2021;SDS011;1015;49.756;6.994;2022-12-20T11:56:29;3.43;;;2.30;;
2021;SDS011;1015;49.756;6.994;2022-12-20T11:58:59;3.67;;;1.97;;
2021;SDS011;1015;49.756;6.994;2022-12-20T12:01:28;2.40;;;2.20;;
2021;SDS011;1015;49.756;6.994;2022-12-20T12:04:01;3.80;;;2.27;;
2021;SDS011;1015;49.756;6.994;2022-12-20T12:06:30;2.97;;;2.37;;
2021;SDS011;1015;49.756;6.994;2022-12-20T12:09:03;2.53;;;2.33;;
2021;SDS011;1015;49.756;6.994;2022-12-20T12:11:33;3.27;;;2.37;;
2021;SDS011;1015;49.756;6.994;2022-12-20T12:14:03;3.17;;;2.50;;
2021;SDS011;1015;49.756;6.994;2022-12-20T12:16:31;2.90;;;2.10;;
2021;SDS011;1015;49.756;6.994;2022-12-20T12:19:00;5.30;;;2.47;;
2021;SDS011;1015;49.756;6.994;2022-12-20T12:21:27;3.00;;;2.30;;
2021;SDS011;1015;49.756;6.994;2022-12-20T12:23:59;2.73;;;2.20;;
2021;SDS011;1015;49.756;6.994;2022-12-20T12:26:27;2.57;;;2.37;;
2021;SDS011;1015;49.756;6.994;2022-12-20T12:28:57;3.07;;;2.23;;
2021;SDS011;1015;49.756;6.994;2022-12-20T12:31:27;3.00;;;2.47;;
2021;SDS011;1015;49.756;6.994;2022-12-20T12:33:59;4.00;;;2.40;;
2021;SDS011;1015;49.756;6.994;2022-12-20T12:36:37;3.57;;;2.27;;
2021;SDS011;1015;49.756;6.994;2022-12-20T12:39:13;4.93;;;2.83;;
2021;SDS011;1015;49.756;6.994;2022-12-20T12:41:59;2.77;;;2.37;;
2021;SDS011;1015;49.756;6.994;2022-12-20T12:44:33;2.40;;;2.20;;
2021;SDS011;1015;49.756;6.994;2022-12-20T12:47:04;4.40;;;2.20;;
2021;SDS011;1015;49.756;6.994;2022-12-20T12:49:32;4.10;;;2.47;;
2021;SDS011;1015;49.756;6.994;2022-12-20T12:52:00;3.77;;;2.60;;
2021;SDS011;1015;49.756;6.994;2022-12-20T12:54:29;5.43;;;2.17;;
2021;SDS011;1015;49.756;6.994;2022-12-20T12:56:58;3.50;;;2.60;;
2021;SDS011;1015;49.756;6.994;2022-12-20T13:02:24;2.20;;;2.00;;
2021;SDS011;1015;49.756;6.994;2022-12-20T13:04:52;3.27;;;2.97;;
2021;SDS011;1015;49.756;6.994;2022-12-20T13:07:24;4.23;;;2.33;;
2021;SDS011;1015;49.756;6.994;2022-12-20T13:09:52;4.73;;;2.83;;
2021;SDS011;1015;49.756;6.994;2022-12-20T13:18:15;2.97;;;2.13;;
2021;SDS011;1015;49.756;6.994;2022-12-20T13:20:43;2.20;;;2.00;;
2021;SDS011;1015;49.756;6.994;2022-12-20T13:23:30;2.63;;;1.80;;
2021;SDS011;1015;49.756;6.994;2022-12-20T13:25:57;2.60;;;2.00;;
2021;SDS011;1015;49.756;6.994;2022-12-20T13:28:43;2.47;;;1.97;;
2021;SDS011;1015;49.756;6.994;2022-12-20T13:31:29;2.50;;;2.20;;
2021;SDS011;1015;49.756;6.994;2022-12-20T13:34:00;2.40;;;2.20;;
2021;SDS011;1015;49.756;6.994;2022-12-20T13:36:29;3.27;;;2.53;;
2021;SDS011;1015;49.756;6.994;2022-12-20T13:38:58;4.73;;;2.60;;
2021;SDS011;1015;49.756;6.994;2022-12-20T13:41:27;3.50;;;2.43;;
2021;SDS011;1015;49.756;6.994;2022-12-20T13:43:57;3.20;;;2.47;;
2021;SDS011;1015;49.756;6.994;2022-12-20T13:46:26;2.67;;;2.20;;
2021;SDS011;1015;49.756;6.994;2022-12-20T13:48:56;2.80;;;2.20;;
2021;SDS011;1015;49.756;6.994;2022-12-20T13:51:29;2.60;;;1.90;;
2021;SDS011;1015;49.756;6.994;2022-12-20T13:53:57;3.37;;;2.70;;
2021;SDS011;1015;49.756;6.994;2022-12-20T13:56:32;3.67;;;2.40;;
2021;SDS011;1015;49.756;6.994;2022-12-20T13:59:03;3.20;;;2.20;;
2021;SDS011;1015;49.756;6.994;2022-12-20T14:01:31;5.00;;;2.80;;
2021;SDS011;1015;49.756;6.994;2022-12-20T14:04:01;3.83;;;2.33;;
2021;SDS011;1015;49.756;6.994;2022-12-20T14:06:32;2.67;;;2.40;;
2021;SDS011;1015;49.756;6.994;2022-12-20T14:09:00;2.97;;;2.27;;
2021;SDS011;1015;49.756;6.994;2022-12-20T14:11:29;4.47;;;2.73;;
2021;SDS011;1015;49.756;6.994;2022-12-20T14:13:57;3.20;;;2.70;;
2021;SDS011;1015;49.756;6.994;2022-12-20T14:16:25;4.80;;;3.10;;
2021;SDS011;1015;49.756;6.994;2022-12-20T14:18:59;3.67;;;3.00;;
2021;SDS011;1015;49.756;6.994;2022-12-20T14:21:27;6.53;;;2.33;;
2021;SDS011;1015;49.756;6.994;2022-12-20T14:23:56;2.70;;;2.30;;
2021;SDS011;1015;49.756;6.994;2022-12-20T14:26:25;4.23;;;2.60;;
2021;SDS011;1015;49.756;6.994;2022-12-20T14:28:53;3.10;;;2.40;;
2021;SDS011;1015;49.756;6.994;2022-12-20T14:31:22;2.27;;;2.00;;
2021;SDS011;1015;49.756;6.994;2022-12-20T14:33:50;2.80;;;2.30;;
2021;SDS011;1015;49.756;6.994;2022-12-20T14:36:19;2.97;;;2.47;;
2021;SDS011;1015;49.756;6.994;2022-12-20T14:38:47;2.60;;;2.40;;
2021;SDS011;1015;49.756;6.994;2022-12-20T14:41:30;3.67;;;2.20;;
2021;SDS011;1015;49.756;6.994;2022-12-20T14:43:58;3.90;;;2.23;;
2021;SDS011;1015;49.756;6.994;2022-12-20T14:46:27;3.10;;;2.60;;
2021;SDS011;1015;49.756;6.994;2022-12-20T14:49:10;2.00;;;1.80;;
2021;SDS011;1015;49.756;6.994;2022-12-20T14:51:41;2.60;;;2.30;;
2021;SDS011;1015;49.756;6.994;2022-12-20T14:54:10;3.50;;;2.50;;
2021;SDS011;1015;49.756;6.994;2022-12-20T14:56:43;3.07;;;2.77;;
2021;SDS011;1015;49.756;6.994;2022-12-20T14:59:12;4.00;;;2.00;;
2021;SDS011;1015;49.756;6.994;2022-12-20T15:01:40;4.00;;;2.43;;
2021;SDS011;1015;49.756;6.994;2022-12-20T15:06:50;2.33;;;1.80;;
2021;SDS011;1015;49.756;6.994;2022-12-20T15:09:18;3.07;;;2.10;;
2021;SDS011;1015;49.756;6.994;2022-12-20T15:11:46;3.33;;;2.67;;
2021;SDS011;1015;49.756;6.994;2022-12-20T15:14:20;3.50;;;2.60;;
2021;SDS011;1015;49.756;6.994;2022-12-20T15:16:48;2.67;;;2.20;;
2021;SDS011;1015;49.756;6.994;2022-12-20T15:19:16;5.03;;;3.03;;
2021;SDS011;1015;49.756;6.994;2022-12-20T15:21:43;2.47;;;2.27;;
2021;SDS011;1015;49.756;6.994;2022-12-20T15:24:12;6.13;;;2.60;;
2021;SDS011;1015;49.756;6.994;2022-12-20T15:26:40;3.43;;;2.57;;
2021;SDS011;1015;49.756;6.994;2022-12-20T15:29:10;2.40;;;2.20;;
2021;SDS011;1015;49.756;6.994;2022-12-20T15:31:39;3.37;;;2.30;;
2021;SDS011;1015;49.756;6.994;2022-12-20T15:34:09;4.77;;;2.30;;
2021;SDS011;1015;49.756;6.994;2022-12-20T15:36:39;3.30;;;2.40;;
2021;SDS011;1015;49.756;6.994;2022-12-20T15:39:06;4.63;;;2.60;;
2021;SDS011;1015;49.756;6.994;2022-12-20T15:41:33;12.60;;;7.60;;
2021;SDS011;1015;49.756;6.994;2022-12-20T15:44:02;48.30;;;23.00;;
2021;SDS011;1015;49.756;6.994;2022-12-20T15:46:32;66.13;;;29.43;;
2021;SDS011;1015;49.756;6.994;2022-12-20T15:48:59;70.07;;;25.33;;
2021;SDS011;1015;49.756;6.994;2022-12-20T15:51:27;6.67;;;4.20;;
2021;SDS011;1015;49.756;6.994;2022-12-20T15:53:56;4.53;;;3.40;;
2021;SDS011;1015;49.756;6.994;2022-12-20T15:56:24;3.40;;;2.80;;